createdAt,value
2022-12-16T00:01:41.763Z,-15.45
2022-12-16T00:04:09.624Z,-15.46
2022-12-16T00:06:37.643Z,-15.41
2022-12-16T00:09:09.247Z,-15.30
2022-12-16T00:11:37.261Z,-15.52
2022-12-16T00:14:05.600Z,-15.24
2022-12-16T00:16:33.451Z,-15.30
2022-12-16T00:19:01.675Z,-15.30
2022-12-16T00:21:29.758Z,-15.23
2022-12-16T00:23:58.572Z,-15.21
2022-12-16T00:26:29.737Z,-15.16
2022-12-16T00:28:57.772Z,-15.08
2022-12-16T00:31:27.762Z,-15.05
2022-12-16T00:33:57.674Z,-14.98
2022-12-16T00:36:25.492Z,-14.91
2022-12-16T00:38:53.940Z,-14.82
2022-12-16T00:41:25.480Z,-14.75
2022-12-16T00:43:54.682Z,-14.66
2022-12-16T00:46:23.031Z,-14.58
2022-12-16T00:48:53.700Z,-14.51
2022-12-16T00:51:23.507Z,-14.42
2022-12-16T00:53:51.757Z,-14.37
2022-12-16T00:56:20.244Z,-14.33
2022-12-16T00:58:48.518Z,-14.33
2022-12-16T01:01:17.841Z,-14.31
2022-12-16T01:03:46.147Z,-14.28
2022-12-16T01:06:16.748Z,-14.21
2022-12-16T01:08:48.336Z,-14.12
2022-12-16T01:11:17.171Z,-14.06
2022-12-16T01:13:45.657Z,-14.00
2022-12-16T01:16:15.522Z,-13.94
2022-12-16T01:18:45.070Z,-13.89
2022-12-16T01:21:16.291Z,-13.85
2022-12-16T01:23:48.506Z,-13.92
2022-12-16T01:26:18.919Z,-13.91
2022-12-16T01:28:49.170Z,-13.98
2022-12-16T01:31:18.403Z,-14.01
2022-12-16T01:33:50.943Z,-14.05
2022-12-16T01:36:20.073Z,-14.09
2022-12-16T01:38:48.433Z,-14.17
2022-12-16T01:41:18.706Z,-14.39
2022-12-16T01:43:47.396Z,-14.34
2022-12-16T01:46:19.973Z,-14.42
2022-12-16T01:48:53.425Z,-14.47
2022-12-16T01:51:28.032Z,-14.50
2022-12-16T01:53:59.000Z,-14.55
2022-12-16T01:56:31.488Z,-14.59
2022-12-16T01:59:00.646Z,-14.61
2022-12-16T02:01:29.063Z,-14.59
2022-12-16T02:04:02.498Z,-14.51
2022-12-16T02:06:31.431Z,-14.50
2022-12-16T02:09:03.989Z,-14.50
2022-12-16T02:12:06.838Z,-14.60
2022-12-16T02:14:52.055Z,-14.70
2022-12-16T02:17:29.562Z,-14.68
2022-12-16T02:20:30.976Z,-14.63
2022-12-16T02:23:17.848Z,-14.65
2022-12-16T02:26:10.289Z,-14.65
2022-12-16T02:28:58.094Z,-14.69
2022-12-16T02:31:35.039Z,-14.68
2022-12-16T02:34:13.797Z,-14.78
2022-12-16T02:36:50.445Z,-14.74
2022-12-16T02:39:23.122Z,-14.72
2022-12-16T02:41:56.484Z,-14.67
2022-12-16T02:44:33.713Z,-14.67
2022-12-16T02:47:03.101Z,-14.63
2022-12-16T02:49:47.014Z,-14.65
2022-12-16T02:52:16.176Z,-14.70
2022-12-16T02:54:45.007Z,-14.72
2022-12-16T02:57:27.911Z,-14.63
2022-12-16T03:00:04.300Z,-14.60
2022-12-16T03:02:39.684Z,-14.53
2022-12-16T03:05:14.235Z,-14.46
2022-12-16T03:07:44.367Z,-14.43
2022-12-16T03:10:18.512Z,-14.37
2022-12-16T03:12:47.595Z,-14.35
2022-12-16T03:15:18.593Z,-14.30
2022-12-16T03:17:52.535Z,-14.31
2022-12-16T03:20:25.928Z,-14.29
2022-12-16T03:22:58.622Z,-14.35
2022-12-16T03:25:29.295Z,-14.24
2022-12-16T03:28:05.572Z,-14.25
2022-12-16T03:30:37.604Z,-14.33
2022-12-16T03:33:13.233Z,-14.32
2022-12-16T03:35:45.966Z,-14.30
2022-12-16T03:38:15.541Z,-14.27
2022-12-16T03:40:45.150Z,-14.37
2022-12-16T03:43:15.240Z,-14.28
2022-12-16T03:45:46.633Z,-14.35
2022-12-16T03:48:17.375Z,-14.35
2022-12-16T03:50:45.559Z,-14.37
2022-12-16T03:53:13.457Z,-14.38
2022-12-16T03:55:41.294Z,-14.23
2022-12-16T03:58:09.274Z,-14.21
2022-12-16T04:00:37.231Z,-14.22
2022-12-16T04:03:06.372Z,-14.24
2022-12-16T04:05:35.692Z,-14.21
2022-12-16T04:08:04.093Z,-14.20
2022-12-16T04:10:49.773Z,-14.19
2022-12-16T04:13:35.574Z,-14.17
2022-12-16T04:16:21.062Z,-14.17
2022-12-16T04:19:07.015Z,-14.17
2022-12-16T04:21:53.452Z,-14.19
2022-12-16T04:24:31.350Z,-14.36
2022-12-16T04:27:16.440Z,-14.32
2022-12-16T04:29:58.274Z,-14.36
2022-12-16T04:32:26.798Z,-14.48
2022-12-16T04:34:53.945Z,-14.46
2022-12-16T04:37:40.723Z,-14.43
2022-12-16T04:40:27.018Z,-14.35
2022-12-16T04:43:12.276Z,-14.33
2022-12-16T04:45:58.159Z,-14.31
2022-12-16T04:48:43.614Z,-14.29
2022-12-16T04:51:29.001Z,-14.28
2022-12-16T04:54:24.106Z,-14.25
2022-12-16T04:57:09.588Z,-14.23
2022-12-16T04:59:54.961Z,-14.19
2022-12-16T05:02:40.420Z,-14.21
2022-12-16T05:05:29.769Z,-14.20
2022-12-16T05:08:15.249Z,-14.22
2022-12-16T05:11:02.816Z,-14.25
2022-12-16T05:13:48.145Z,-14.27
2022-12-16T05:16:45.262Z,-14.25
2022-12-16T05:19:31.811Z,-14.27
2022-12-16T05:22:18.098Z,-14.33
2022-12-16T05:25:03.380Z,-14.42
2022-12-16T05:27:50.111Z,-14.55
2022-12-16T05:30:35.814Z,-14.66
2022-12-16T05:33:21.281Z,-14.73
2022-12-16T05:36:06.462Z,-14.76
2022-12-16T05:38:52.248Z,-14.73
2022-12-16T05:41:37.511Z,-14.65
2022-12-16T05:44:24.861Z,-14.57
2022-12-16T05:47:10.454Z,-14.50
2022-12-16T05:49:56.132Z,-14.45
2022-12-16T05:52:41.200Z,-14.37
2022-12-16T05:55:33.589Z,-14.41
2022-12-16T05:58:19.673Z,-14.58
2022-12-16T06:01:06.298Z,-14.60
2022-12-16T06:03:51.664Z,-14.74
2022-12-16T06:06:36.201Z,-14.90
2022-12-16T06:09:22.165Z,-15.00
2022-12-16T06:12:16.972Z,-15.11
2022-12-16T06:15:02.343Z,-15.27
2022-12-16T06:17:49.180Z,-15.35
2022-12-16T06:20:34.491Z,-15.37
2022-12-16T06:23:24.097Z,-15.36
2022-12-16T06:26:10.892Z,-15.35
2022-12-16T06:28:56.077Z,-15.33
2022-12-16T06:31:41.436Z,-15.34
2022-12-16T06:34:27.953Z,-15.34
2022-12-16T06:37:13.090Z,-15.38
2022-12-16T06:39:58.847Z,-15.44
2022-12-16T06:42:44.508Z,-15.51
2022-12-16T06:45:34.529Z,-15.60
2022-12-16T06:48:20.207Z,-15.76
2022-12-16T06:51:07.077Z,-15.91
2022-12-16T06:53:52.179Z,-16.03
2022-12-16T06:56:37.513Z,-16.18
2022-12-16T06:59:23.200Z,-16.34
2022-12-16T07:02:08.578Z,-16.53
2022-12-16T07:04:54.149Z,-16.57
2022-12-16T07:07:40.957Z,-16.74
2022-12-16T07:10:27.266Z,-16.86
2022-12-16T07:13:16.225Z,-17.02
2022-12-16T07:16:01.599Z,-16.97
2022-12-16T07:18:47.443Z,-17.11
2022-12-16T07:21:32.629Z,-17.20
2022-12-16T07:24:19.849Z,-17.31
2022-12-16T07:27:05.416Z,-17.36
2022-12-16T07:29:50.491Z,-17.43
2022-12-16T07:32:37.825Z,-17.50
2022-12-16T07:35:24.097Z,-17.57
2022-12-16T07:38:09.367Z,-17.64
2022-12-16T07:40:57.408Z,-17.74
2022-12-16T07:43:42.955Z,-17.72
2022-12-16T07:46:28.336Z,-17.65
2022-12-16T07:49:13.633Z,-17.36
2022-12-16T07:51:58.883Z,-17.27
2022-12-16T07:54:44.371Z,-17.12
2022-12-16T07:57:31.470Z,-17.00
2022-12-16T08:00:28.329Z,-16.90
2022-12-16T08:03:13.765Z,-16.74
2022-12-16T08:05:59.624Z,-16.67
2022-12-16T08:08:45.115Z,-16.63
2022-12-16T08:11:30.925Z,-16.62
2022-12-16T08:14:17.369Z,-16.60
2022-12-16T08:17:03.417Z,-16.61
2022-12-16T08:19:48.514Z,-16.60
2022-12-16T08:22:33.771Z,-16.57
2022-12-16T08:25:19.136Z,-16.54
2022-12-16T08:28:05.114Z,-16.53
2022-12-16T08:30:53.976Z,-16.55
2022-12-16T08:33:39.909Z,-16.56
2022-12-16T08:36:25.717Z,-16.62
2022-12-16T08:39:12.181Z,-16.65
2022-12-16T08:41:57.450Z,-16.69
2022-12-16T08:44:43.503Z,-16.66
2022-12-16T08:47:30.130Z,-16.57
2022-12-16T08:50:15.945Z,-16.38
2022-12-16T08:53:01.767Z,-16.26
2022-12-16T08:55:47.189Z,-16.11
2022-12-16T08:58:32.481Z,-16.04
2022-12-16T09:01:18.061Z,-15.90
2022-12-16T09:04:05.093Z,-15.70
2022-12-16T09:06:51.185Z,-15.60
2022-12-16T09:09:36.753Z,-15.43
2022-12-16T09:12:24.064Z,-15.30
2022-12-16T09:15:09.317Z,-15.26
2022-12-16T09:17:54.805Z,-15.25
2022-12-16T09:20:41.447Z,-15.18
2022-12-16T09:23:27.158Z,-15.16
2022-12-16T09:26:12.449Z,-14.96
2022-12-16T09:28:57.799Z,-14.89
2022-12-16T09:31:44.316Z,-14.89
2022-12-16T09:34:29.530Z,-14.90
2022-12-16T09:37:27.590Z,-14.81
2022-12-16T09:40:13.090Z,-14.79
2022-12-16T09:43:09.418Z,-14.84
2022-12-16T09:46:08.089Z,-14.87
2022-12-16T09:49:04.979Z,-14.87
2022-12-16T09:51:53.345Z,-14.83
2022-12-16T09:54:45.621Z,-14.73
2022-12-16T09:57:33.058Z,-14.54
2022-12-16T10:00:21.288Z,-14.45
2022-12-16T10:03:08.828Z,-14.35
2022-12-16T10:06:00.271Z,-14.31
2022-12-16T10:08:56.706Z,-14.17
2022-12-16T10:11:59.557Z,-14.01
2022-12-16T10:14:54.312Z,-13.91
2022-12-16T10:17:44.389Z,-13.69
2022-12-16T10:20:39.551Z,-13.47
2022-12-16T10:23:33.045Z,-13.26
2022-12-16T10:26:24.262Z,-13.25
2022-12-16T10:29:21.914Z,-13.17
2022-12-16T10:32:07.619Z,-13.13
2022-12-16T10:34:56.899Z,-13.06
2022-12-16T10:37:50.808Z,-13.00
2022-12-16T10:40:49.598Z,-12.87
2022-12-16T10:43:39.374Z,-12.74
2022-12-16T10:46:35.148Z,-12.64
2022-12-16T10:49:21.757Z,-12.35
2022-12-16T10:52:08.319Z,-12.16
2022-12-16T10:54:58.984Z,-11.95
2022-12-16T10:57:56.039Z,-11.85
2022-12-16T11:01:00.157Z,-12.11
2022-12-16T11:03:49.194Z,-12.13
2022-12-16T11:06:38.586Z,-12.17
2022-12-16T11:09:38.866Z,-12.12
2022-12-16T11:12:40.114Z,-11.62
2022-12-16T11:15:47.739Z,-11.36
2022-12-16T11:18:35.184Z,-11.49
2022-12-16T11:21:40.681Z,-11.59
2022-12-16T11:24:30.827Z,-11.74
2022-12-16T11:27:18.648Z,-11.72
2022-12-16T11:30:11.634Z,-11.76
2022-12-16T11:33:00.296Z,-11.70
2022-12-16T11:35:50.179Z,-11.07
2022-12-16T11:38:50.465Z,-10.21
2022-12-16T11:41:44.881Z,-9.87
2022-12-16T11:44:39.355Z,-10.05
2022-12-16T11:47:34.572Z,-10.45
2022-12-16T11:50:21.675Z,-10.84
2022-12-16T11:53:13.647Z,-11.26
2022-12-16T11:56:10.855Z,-11.49
2022-12-16T11:59:04.567Z,-11.54
2022-12-16T12:01:55.487Z,-11.55
2022-12-16T12:04:41.699Z,-11.69
2022-12-16T12:07:48.025Z,-11.93
2022-12-16T12:10:49.580Z,-12.09
2022-12-16T12:13:48.298Z,-12.15
2022-12-16T12:16:40.290Z,-12.22
2022-12-16T12:19:31.918Z,-12.29
2022-12-16T12:22:21.433Z,-12.41
2022-12-16T12:25:14.383Z,-12.44
2022-12-16T12:28:09.084Z,-12.53
2022-12-16T12:31:02.525Z,-12.59
2022-12-16T12:33:56.713Z,-12.69
2022-12-16T12:36:53.769Z,-12.80
2022-12-16T12:39:47.478Z,-13.03
2022-12-16T12:42:49.517Z,-13.03
2022-12-16T12:45:59.637Z,-13.07
2022-12-16T12:48:56.091Z,-13.08
2022-12-16T12:51:49.389Z,-13.09
2022-12-16T12:54:43.384Z,-13.15
2022-12-16T12:57:34.030Z,-13.06
2022-12-16T13:00:23.513Z,-12.95
2022-12-16T13:03:18.891Z,-12.93
2022-12-16T13:06:06.918Z,-13.07
2022-12-16T13:09:02.072Z,-13.26
2022-12-16T13:11:48.158Z,-13.38
2022-12-16T13:15:11.349Z,-13.52
2022-12-16T13:18:30.250Z,-13.71
2022-12-16T13:21:17.495Z,-13.85
2022-12-16T13:24:03.797Z,-13.98
2022-12-16T13:26:51.519Z,-14.11
2022-12-16T13:29:39.818Z,-14.16
2022-12-16T13:32:36.766Z,-14.23
2022-12-16T13:35:33.369Z,-14.35
2022-12-16T13:38:22.652Z,-14.46
2022-12-16T13:41:13.103Z,-14.58
2022-12-16T13:44:07.215Z,-14.65
2022-12-16T13:47:07.047Z,-14.64
2022-12-16T13:50:05.315Z,-14.75
2022-12-16T13:53:02.154Z,-14.90
2022-12-16T13:55:50.581Z,-15.00
2022-12-16T13:58:48.077Z,-15.06
2022-12-16T14:01:38.446Z,-15.16
2022-12-16T14:04:28.815Z,-15.24
2022-12-16T14:07:24.367Z,-15.05
2022-12-16T14:10:10.528Z,-15.04
2022-12-16T14:13:19.439Z,-14.99
2022-12-16T14:16:16.829Z,-14.81
2022-12-16T14:19:16.305Z,-14.63
2022-12-16T14:22:09.958Z,-14.42
2022-12-16T14:24:57.650Z,-14.24
2022-12-16T14:27:43.516Z,-14.02
2022-12-16T14:30:37.659Z,-13.80
2022-12-16T14:33:45.815Z,-13.63
2022-12-16T14:36:41.946Z,-13.49
2022-12-16T14:39:29.420Z,-13.40
2022-12-16T14:42:14.908Z,-13.31
2022-12-16T14:45:03.804Z,-13.27
2022-12-16T14:47:56.409Z,-13.23
2022-12-16T14:50:45.377Z,-13.19
2022-12-16T14:53:37.149Z,-13.11
2022-12-16T14:56:34.857Z,-13.08
2022-12-16T14:59:28.273Z,-12.99
2022-12-16T15:02:16.764Z,-12.98
2022-12-16T15:05:09.592Z,-12.91
2022-12-16T15:07:56.336Z,-12.86
2022-12-16T15:10:45.701Z,-12.74
2022-12-16T15:13:36.427Z,-12.57
2022-12-16T15:16:24.384Z,-12.46
2022-12-16T15:19:17.971Z,-12.49
2022-12-16T15:22:06.364Z,-12.52
2022-12-16T15:24:56.262Z,-12.72
2022-12-16T15:27:44.017Z,-12.95
2022-12-16T15:30:53.972Z,-13.20
2022-12-16T15:33:41.727Z,-13.33
2022-12-16T15:36:40.577Z,-13.39
2022-12-16T15:39:36.990Z,-13.30
2022-12-16T15:42:23.337Z,-13.14
2022-12-16T15:45:10.858Z,-13.06
2022-12-16T15:47:57.221Z,-13.03
2022-12-16T15:50:45.016Z,-13.24
2022-12-16T15:53:36.400Z,-13.47
2022-12-16T15:56:23.712Z,-13.73
2022-12-16T15:59:08.202Z,-13.95
2022-12-16T16:02:04.515Z,-14.12
2022-12-16T16:05:04.826Z,-14.25
2022-12-16T16:07:50.185Z,-14.38
2022-12-16T16:10:38.460Z,-14.56
2022-12-16T16:13:25.122Z,-14.56
2022-12-16T16:16:10.661Z,-14.47
2022-12-16T16:18:56.856Z,-14.48
2022-12-16T16:21:42.793Z,-14.58
2022-12-16T16:24:28.512Z,-14.65
2022-12-16T16:27:13.903Z,-14.73
2022-12-16T16:30:00.618Z,-14.74
2022-12-16T16:32:45.813Z,-14.83
2022-12-16T16:35:31.925Z,-14.90
2022-12-16T16:38:18.748Z,-14.86
2022-12-16T16:41:04.797Z,-14.82
2022-12-16T16:43:50.066Z,-14.81
2022-12-16T16:46:47.437Z,-14.83
2022-12-16T16:49:42.149Z,-14.75
2022-12-16T16:52:30.642Z,-14.68
2022-12-16T16:55:15.953Z,-14.82
2022-12-16T16:58:01.645Z,-14.51
2022-12-16T17:00:46.934Z,-14.44
2022-12-16T17:04:28.284Z,-14.37
2022-12-16T17:07:15.018Z,-14.36
2022-12-16T17:10:00.188Z,-14.34
2022-12-16T17:12:48.457Z,-14.35
2022-12-16T17:15:36.381Z,-14.37
2022-12-16T17:18:23.155Z,-14.40
2022-12-16T17:21:08.917Z,-14.42
2022-12-16T17:23:55.432Z,-14.46
2022-12-16T17:26:41.778Z,-14.53
2022-12-16T17:29:36.302Z,-14.49
2022-12-16T17:32:22.620Z,-14.58
2022-12-16T17:35:07.888Z,-14.68
2022-12-16T17:37:53.697Z,-14.82
2022-12-16T17:40:40.951Z,-14.91
2022-12-16T17:43:26.859Z,-15.05
2022-12-16T17:46:16.701Z,-15.09
2022-12-16T17:49:02.685Z,-15.16
2022-12-16T17:51:47.968Z,-15.26
2022-12-16T17:54:33.332Z,-15.35
2022-12-16T17:57:20.110Z,-15.37
2022-12-16T18:00:06.560Z,-15.40
2022-12-16T18:02:52.167Z,-15.41
2022-12-16T18:05:44.420Z,-15.40
2022-12-16T18:08:30.464Z,-15.51
2022-12-16T18:11:18.174Z,-15.47
2022-12-16T18:14:05.431Z,-15.54
2022-12-16T18:16:51.174Z,-15.68
2022-12-16T18:19:36.635Z,-15.73
2022-12-16T18:22:22.305Z,-15.68
2022-12-16T18:25:08.035Z,-15.72
2022-12-16T18:27:55.496Z,-15.73
2022-12-16T18:30:42.042Z,-15.81
2022-12-16T18:33:27.344Z,-15.91
2022-12-16T18:36:12.591Z,-16.00
2022-12-16T18:38:57.897Z,-16.05
2022-12-16T18:41:43.168Z,-16.09
2022-12-16T18:44:31.573Z,-16.15
2022-12-16T18:47:18.246Z,-16.17
2022-12-16T18:50:04.079Z,-16.16
2022-12-16T18:52:50.079Z,-16.15
2022-12-16T18:55:35.720Z,-16.09
2022-12-16T18:58:49.742Z,-16.04
2022-12-16T19:01:28.731Z,-16.06
2022-12-16T19:04:15.945Z,-16.02
2022-12-16T19:07:01.283Z,-16.07
2022-12-16T19:09:46.634Z,-16.07
2022-12-16T19:12:32.116Z,-16.04
2022-12-16T19:15:17.545Z,-16.03
2022-12-16T19:18:02.764Z,-16.02
2022-12-16T19:20:49.251Z,-16.25
2022-12-16T19:23:35.196Z,-16.09
2022-12-16T19:26:21.358Z,-16.08
2022-12-16T19:29:06.987Z,-15.90
2022-12-16T19:31:52.197Z,-15.78
2022-12-16T19:34:37.916Z,-15.71
2022-12-16T19:37:24.732Z,-15.59
2022-12-16T19:40:11.076Z,-15.56
2022-12-16T19:42:56.390Z,-15.49
2022-12-16T19:45:43.384Z,-15.36
2022-12-16T19:48:28.594Z,-15.28
2022-12-16T19:51:17.389Z,-15.18
2022-12-16T19:54:04.720Z,-15.14
2022-12-16T19:56:52.133Z,-15.10
2022-12-16T19:59:37.936Z,-15.08
2022-12-16T20:02:24.027Z,-15.10
2022-12-16T20:05:11.015Z,-15.13
2022-12-16T20:07:56.526Z,-15.19
2022-12-16T20:10:43.397Z,-15.22
2022-12-16T20:13:30.381Z,-15.11
2022-12-16T20:16:20.479Z,-14.93
2022-12-16T20:19:05.955Z,-14.76
2022-12-16T20:21:55.086Z,-14.56
2022-12-16T20:24:43.780Z,-14.38
2022-12-16T20:27:30.991Z,-14.23
2022-12-16T20:30:16.168Z,-14.10
2022-12-16T20:33:01.654Z,-14.02
2022-12-16T20:35:47.979Z,-13.95
2022-12-16T20:38:33.260Z,-13.88
2022-12-16T20:41:23.416Z,-13.40
2022-12-16T20:44:10.389Z,-13.16
2022-12-16T20:46:56.540Z,-12.93
2022-12-16T20:49:43.146Z,-12.52
2022-12-16T20:52:29.061Z,-12.40
2022-12-16T20:55:14.485Z,-12.24
2022-12-16T20:58:14.075Z,-12.01
2022-12-16T21:01:01.021Z,-11.95
2022-12-16T21:03:46.689Z,-11.87
2022-12-16T21:06:34.418Z,-11.52
2022-12-16T21:09:19.822Z,-11.32
2022-12-16T21:12:05.270Z,-11.15
2022-12-16T21:14:50.620Z,-11.13
2022-12-16T21:17:39.224Z,-11.23
2022-12-16T21:20:25.454Z,-11.05
2022-12-16T21:23:17.378Z,-10.86
2022-12-16T21:26:03.080Z,-10.80
2022-12-16T21:28:49.176Z,-10.59
2022-12-16T21:31:35.208Z,-10.41
2022-12-16T21:34:23.303Z,-10.35
2022-12-16T21:37:09.331Z,-10.35
2022-12-16T21:39:54.625Z,-10.42
2022-12-16T21:42:44.141Z,-10.41
2022-12-16T21:45:30.449Z,-10.46
2022-12-16T21:48:15.878Z,-10.52
2022-12-16T21:51:08.863Z,-10.64
2022-12-16T21:53:54.696Z,-10.77
2022-12-16T21:56:44.246Z,-10.85
2022-12-16T21:59:29.411Z,-10.82
2022-12-16T22:02:14.826Z,-10.87
2022-12-16T22:04:59.993Z,-10.96
2022-12-16T22:07:49.112Z,-11.19
2022-12-16T22:10:35.037Z,-11.44
2022-12-16T22:13:20.433Z,-11.69
2022-12-16T22:16:13.591Z,-11.83
2022-12-16T22:18:59.609Z,-12.11
2022-12-16T22:21:46.006Z,-12.41
2022-12-16T22:24:32.576Z,-12.64
2022-12-16T22:27:18.308Z,-12.66
2022-12-16T22:30:03.884Z,-12.68
2022-12-16T22:32:49.113Z,-12.63
2022-12-16T22:35:34.722Z,-12.80
2022-12-16T22:38:20.220Z,-12.96
2022-12-16T22:41:13.769Z,-13.15
2022-12-16T22:43:59.136Z,-13.30
2022-12-16T22:46:44.529Z,-13.24
2022-12-16T22:49:30.147Z,-13.11
2022-12-16T22:52:15.561Z,-13.09
2022-12-16T22:55:00.888Z,-13.18
2022-12-16T22:57:56.881Z,-13.05
2022-12-16T23:00:42.277Z,-12.75
2022-12-16T23:03:34.012Z,-12.76
2022-12-16T23:06:19.639Z,-12.66
2022-12-16T23:09:04.938Z,-12.83
2022-12-16T23:11:53.267Z,-12.93
2022-12-16T23:14:43.822Z,-13.02
2022-12-16T23:17:29.632Z,-13.02
2022-12-16T23:20:14.860Z,-13.09
2022-12-16T23:23:00.505Z,-13.09
2022-12-16T23:32:00.595Z,-12.26
2022-12-16T23:34:46.425Z,-12.13
2022-12-16T23:37:32.271Z,-11.95
2022-12-16T23:40:18.005Z,-11.91
2022-12-16T23:43:18.407Z,-11.86
2022-12-16T23:46:04.048Z,-11.82
2022-12-16T23:48:50.858Z,-11.90
2022-12-16T23:51:37.523Z,-11.96
2022-12-16T23:54:23.379Z,-11.99
2022-12-16T23:57:08.824Z,-12.08
2022-12-16T23:59:54.540Z,-11.91
